sensor_id;sensor_type;location;lat;lon;timestamp;P1;durP1;ratioP1;P2;durP2;ratioP2
66429;SDS011;53242;51.694;10.006;2022-07-22T00:00:13;13.32;;;4.60;;
66429;SDS011;53242;51.694;10.006;2022-07-22T00:04:59;13.57;;;5.22;;
66429;SDS011;53242;51.694;10.006;2022-07-22T00:07:22;12.05;;;4.90;;
66429;SDS011;53242;51.694;10.006;2022-07-22T00:09:45;10.30;;;4.75;;
66429;SDS011;53242;51.694;10.006;2022-07-22T00:12:07;11.40;;;4.20;;
66429;SDS011;53242;51.694;10.006;2022-07-22T00:14:30;11.00;;;4.57;;
66429;SDS011;53242;51.694;10.006;2022-07-22T00:16:52;10.20;;;4.50;;
66429;SDS011;53242;51.694;10.006;2022-07-22T00:19:15;12.45;;;4.28;;
66429;SDS011;53242;51.694;10.006;2022-07-22T00:21:37;12.88;;;5.15;;
66429;SDS011;53242;51.694;10.006;2022-07-22T00:24:00;10.63;;;4.35;;
66429;SDS011;53242;51.694;10.006;2022-07-22T00:26:22;11.00;;;4.28;;
66429;SDS011;53242;51.694;10.006;2022-07-22T00:28:44;15.35;;;5.38;;
66429;SDS011;53242;51.694;10.006;2022-07-22T00:31:07;11.55;;;4.15;;
66429;SDS011;53242;51.694;10.006;2022-07-22T00:33:29;12.07;;;3.78;;
66429;SDS011;53242;51.694;10.006;2022-07-22T00:35:52;9.95;;;3.75;;
66429;SDS011;53242;51.694;10.006;2022-07-22T00:38:14;10.10;;;3.75;;
66429;SDS011;53242;51.694;10.006;2022-07-22T00:40:37;8.55;;;3.55;;
66429;SDS011;53242;51.694;10.006;2022-07-22T00:43:00;10.60;;;3.90;;
66429;SDS011;53242;51.694;10.006;2022-07-22T00:45:22;9.75;;;3.60;;
66429;SDS011;53242;51.694;10.006;2022-07-22T00:47:45;10.57;;;3.88;;
66429;SDS011;53242;51.694;10.006;2022-07-22T00:50:08;8.60;;;3.40;;
66429;SDS011;53242;51.694;10.006;2022-07-22T00:52:30;7.32;;;3.10;;
66429;SDS011;53242;51.694;10.006;2022-07-22T00:54:54;8.90;;;3.53;;
66429;SDS011;53242;51.694;10.006;2022-07-22T00:57:18;7.50;;;3.30;;
66429;SDS011;53242;51.694;10.006;2022-07-22T00:59:40;7.88;;;2.83;;
66429;SDS011;53242;51.694;10.006;2022-07-22T01:02:04;7.85;;;3.10;;
66429;SDS011;53242;51.694;10.006;2022-07-22T01:04:26;8.13;;;2.88;;
66429;SDS011;53242;51.694;10.006;2022-07-22T01:06:49;7.30;;;2.95;;
66429;SDS011;53242;51.694;10.006;2022-07-22T01:09:12;7.05;;;2.60;;
66429;SDS011;53242;51.694;10.006;2022-07-22T01:11:35;6.28;;;2.45;;
66429;SDS011;53242;51.694;10.006;2022-07-22T01:13:57;6.75;;;2.30;;
66429;SDS011;53242;51.694;10.006;2022-07-22T01:16:20;5.72;;;2.05;;
66429;SDS011;53242;51.694;10.006;2022-07-22T01:18:44;11.45;;;2.70;;
66429;SDS011;53242;51.694;10.006;2022-07-22T01:21:08;4.35;;;2.25;;
66429;SDS011;53242;51.694;10.006;2022-07-22T01:23:31;5.85;;;2.63;;
66429;SDS011;53242;51.694;10.006;2022-07-22T01:25:54;7.10;;;2.30;;
66429;SDS011;53242;51.694;10.006;2022-07-22T01:28:16;5.00;;;2.10;;
66429;SDS011;53242;51.694;10.006;2022-07-22T01:30:39;7.40;;;2.40;;
66429;SDS011;53242;51.694;10.006;2022-07-22T01:33:01;5.80;;;2.45;;
66429;SDS011;53242;51.694;10.006;2022-07-22T01:35:24;5.22;;;2.25;;
66429;SDS011;53242;51.694;10.006;2022-07-22T01:37:46;5.63;;;2.05;;
66429;SDS011;53242;51.694;10.006;2022-07-22T01:40:09;5.05;;;2.00;;
66429;SDS011;53242;51.694;10.006;2022-07-22T01:42:32;4.60;;;2.00;;
66429;SDS011;53242;51.694;10.006;2022-07-22T01:44:54;5.15;;;1.80;;
66429;SDS011;53242;51.694;10.006;2022-07-22T01:47:16;4.82;;;2.00;;
66429;SDS011;53242;51.694;10.006;2022-07-22T01:49:39;4.85;;;2.28;;
66429;SDS011;53242;51.694;10.006;2022-07-22T01:52:02;3.80;;;1.80;;
66429;SDS011;53242;51.694;10.006;2022-07-22T01:54:26;7.28;;;1.83;;
66429;SDS011;53242;51.694;10.006;2022-07-22T01:56:49;3.83;;;1.88;;
66429;SDS011;53242;51.694;10.006;2022-07-22T01:59:11;4.40;;;2.10;;
66429;SDS011;53242;51.694;10.006;2022-07-22T02:01:34;4.85;;;2.00;;
66429;SDS011;53242;51.694;10.006;2022-07-22T02:03:57;4.50;;;2.20;;
66429;SDS011;53242;51.694;10.006;2022-07-22T02:06:19;7.28;;;2.13;;
66429;SDS011;53242;51.694;10.006;2022-07-22T02:08:43;7.05;;;2.05;;
66429;SDS011;53242;51.694;10.006;2022-07-22T02:11:05;5.13;;;2.05;;
66429;SDS011;53242;51.694;10.006;2022-07-22T02:13:29;5.15;;;1.98;;
66429;SDS011;53242;51.694;10.006;2022-07-22T02:15:52;6.78;;;2.25;;
66429;SDS011;53242;51.694;10.006;2022-07-22T02:18:16;5.85;;;2.10;;
66429;SDS011;53242;51.694;10.006;2022-07-22T02:20:40;7.35;;;2.38;;
66429;SDS011;53242;51.694;10.006;2022-07-22T02:23:03;6.85;;;2.33;;
66429;SDS011;53242;51.694;10.006;2022-07-22T02:25:25;5.47;;;2.20;;
66429;SDS011;53242;51.694;10.006;2022-07-22T02:27:47;5.90;;;1.90;;
66429;SDS011;53242;51.694;10.006;2022-07-22T02:30:10;5.53;;;2.15;;
66429;SDS011;53242;51.694;10.006;2022-07-22T02:32:33;4.70;;;2.00;;
66429;SDS011;53242;51.694;10.006;2022-07-22T02:34:57;4.78;;;1.92;;
66429;SDS011;53242;51.694;10.006;2022-07-22T02:37:20;5.88;;;2.15;;
66429;SDS011;53242;51.694;10.006;2022-07-22T02:39:42;5.32;;;2.13;;
66429;SDS011;53242;51.694;10.006;2022-07-22T02:42:05;5.63;;;2.10;;
66429;SDS011;53242;51.694;10.006;2022-07-22T02:44:28;9.48;;;2.30;;
66429;SDS011;53242;51.694;10.006;2022-07-22T02:46:50;5.85;;;2.45;;
66429;SDS011;53242;51.694;10.006;2022-07-22T02:49:20;6.25;;;2.20;;
66429;SDS011;53242;51.694;10.006;2022-07-22T02:51:43;6.38;;;2.60;;
66429;SDS011;53242;51.694;10.006;2022-07-22T02:54:05;5.95;;;2.20;;
66429;SDS011;53242;51.694;10.006;2022-07-22T02:56:28;6.22;;;2.13;;
66429;SDS011;53242;51.694;10.006;2022-07-22T02:58:50;5.47;;;1.98;;
66429;SDS011;53242;51.694;10.006;2022-07-22T03:01:15;4.30;;;1.92;;
66429;SDS011;53242;51.694;10.006;2022-07-22T03:03:45;3.95;;;1.80;;
66429;SDS011;53242;51.694;10.006;2022-07-22T03:06:08;6.03;;;2.03;;
66429;SDS011;53242;51.694;10.006;2022-07-22T03:08:36;6.47;;;1.98;;
66429;SDS011;53242;51.694;10.006;2022-07-22T03:10:58;5.50;;;2.00;;
66429;SDS011;53242;51.694;10.006;2022-07-22T03:13:21;3.78;;;1.70;;
66429;SDS011;53242;51.694;10.006;2022-07-22T03:15:44;5.22;;;2.17;;
66429;SDS011;53242;51.694;10.006;2022-07-22T03:18:08;3.00;;;1.70;;
66429;SDS011;53242;51.694;10.006;2022-07-22T03:20:30;4.10;;;1.70;;
66429;SDS011;53242;51.694;10.006;2022-07-22T03:22:53;2.75;;;1.52;;
66429;SDS011;53242;51.694;10.006;2022-07-22T03:25:17;3.40;;;1.40;;
66429;SDS011;53242;51.694;10.006;2022-07-22T03:27:39;2.60;;;1.30;;
66429;SDS011;53242;51.694;10.006;2022-07-22T03:30:03;2.38;;;1.02;;
66429;SDS011;53242;51.694;10.006;2022-07-22T03:32:34;3.10;;;1.20;;
66429;SDS011;53242;51.694;10.006;2022-07-22T03:34:56;3.50;;;1.38;;
66429;SDS011;53242;51.694;10.006;2022-07-22T03:37:19;2.17;;;1.10;;
66429;SDS011;53242;51.694;10.006;2022-07-22T03:39:41;2.63;;;1.05;;
66429;SDS011;53242;51.694;10.006;2022-07-22T03:42:04;2.10;;;1.13;;
66429;SDS011;53242;51.694;10.006;2022-07-22T03:44:32;2.10;;;1.00;;
66429;SDS011;53242;51.694;10.006;2022-07-22T03:46:54;2.45;;;1.00;;
66429;SDS011;53242;51.694;10.006;2022-07-22T03:49:17;1.50;;;0.90;;
66429;SDS011;53242;51.694;10.006;2022-07-22T03:51:39;2.17;;;0.93;;
66429;SDS011;53242;51.694;10.006;2022-07-22T03:54:02;1.75;;;0.80;;
66429;SDS011;53242;51.694;10.006;2022-07-22T03:56:24;2.42;;;1.08;;
66429;SDS011;53242;51.694;10.006;2022-07-22T03:58:47;2.30;;;1.17;;
66429;SDS011;53242;51.694;10.006;2022-07-22T04:01:09;1.58;;;0.77;;
66429;SDS011;53242;51.694;10.006;2022-07-22T04:03:33;2.15;;;0.80;;
66429;SDS011;53242;51.694;10.006;2022-07-22T04:06:04;2.40;;;0.80;;
66429;SDS011;53242;51.694;10.006;2022-07-22T04:08:40;3.17;;;1.00;;
66429;SDS011;53242;51.694;10.006;2022-07-22T04:11:03;1.00;;;0.75;;
66429;SDS011;53242;51.694;10.006;2022-07-22T04:13:26;2.00;;;0.68;;
66429;SDS011;53242;51.694;10.006;2022-07-22T04:15:51;1.73;;;0.80;;
66429;SDS011;53242;51.694;10.006;2022-07-22T04:18:14;1.70;;;0.88;;
66429;SDS011;53242;51.694;10.006;2022-07-22T04:20:39;1.92;;;0.90;;
66429;SDS011;53242;51.694;10.006;2022-07-22T04:23:34;1.10;;;0.80;;
66429;SDS011;53242;51.694;10.006;2022-07-22T04:26:19;1.92;;;0.82;;
66429;SDS011;53242;51.694;10.006;2022-07-22T04:28:43;1.05;;;0.73;;
66429;SDS011;53242;51.694;10.006;2022-07-22T04:31:06;1.65;;;0.80;;
66429;SDS011;53242;51.694;10.006;2022-07-22T04:33:30;2.92;;;0.52;;
66429;SDS011;53242;51.694;10.006;2022-07-22T04:35:52;1.52;;;0.60;;
66429;SDS011;53242;51.694;10.006;2022-07-22T04:38:18;0.52;;;0.40;;
66429;SDS011;53242;51.694;10.006;2022-07-22T04:40:50;1.95;;;0.73;;
66429;SDS011;53242;51.694;10.006;2022-07-22T04:43:13;1.55;;;0.60;;
66429;SDS011;53242;51.694;10.006;2022-07-22T04:45:35;1.30;;;0.65;;
66429;SDS011;53242;51.694;10.006;2022-07-22T04:47:58;1.98;;;1.10;;
66429;SDS011;53242;51.694;10.006;2022-07-22T04:50:21;2.00;;;1.23;;
66429;SDS011;53242;51.694;10.006;2022-07-22T04:52:48;2.65;;;1.65;;
66429;SDS011;53242;51.694;10.006;2022-07-22T04:55:11;4.80;;;1.90;;
66429;SDS011;53242;51.694;10.006;2022-07-22T04:57:34;4.90;;;2.17;;
66429;SDS011;53242;51.694;10.006;2022-07-22T04:59:57;4.35;;;2.03;;
66429;SDS011;53242;51.694;10.006;2022-07-22T05:02:20;4.93;;;1.98;;
66429;SDS011;53242;51.694;10.006;2022-07-22T05:04:42;5.00;;;2.50;;
66429;SDS011;53242;51.694;10.006;2022-07-22T05:07:05;5.15;;;2.35;;
66429;SDS011;53242;51.694;10.006;2022-07-22T05:09:27;4.78;;;2.33;;
66429;SDS011;53242;51.694;10.006;2022-07-22T05:11:50;5.95;;;2.50;;
66429;SDS011;53242;51.694;10.006;2022-07-22T05:14:15;6.75;;;2.55;;
66429;SDS011;53242;51.694;10.006;2022-07-22T05:16:38;5.75;;;2.50;;
66429;SDS011;53242;51.694;10.006;2022-07-22T05:19:01;5.35;;;2.50;;
66429;SDS011;53242;51.694;10.006;2022-07-22T05:21:24;6.70;;;2.53;;
66429;SDS011;53242;51.694;10.006;2022-07-22T05:23:46;5.30;;;2.28;;
66429;SDS011;53242;51.694;10.006;2022-07-22T05:26:10;7.30;;;3.03;;
66429;SDS011;53242;51.694;10.006;2022-07-22T05:28:33;5.85;;;2.58;;
66429;SDS011;53242;51.694;10.006;2022-07-22T05:30:56;5.97;;;2.53;;
66429;SDS011;53242;51.694;10.006;2022-07-22T05:33:21;6.30;;;2.58;;
66429;SDS011;53242;51.694;10.006;2022-07-22T05:35:57;5.05;;;2.90;;
66429;SDS011;53242;51.694;10.006;2022-07-22T05:38:26;5.15;;;3.00;;
66429;SDS011;53242;51.694;10.006;2022-07-22T05:40:48;6.10;;;2.60;;
66429;SDS011;53242;51.694;10.006;2022-07-22T05:43:11;7.65;;;2.78;;
66429;SDS011;53242;51.694;10.006;2022-07-22T05:45:34;6.10;;;2.60;;
66429;SDS011;53242;51.694;10.006;2022-07-22T05:47:57;6.45;;;2.75;;
66429;SDS011;53242;51.694;10.006;2022-07-22T05:50:20;7.55;;;2.58;;
66429;SDS011;53242;51.694;10.006;2022-07-22T05:52:42;6.72;;;2.75;;
66429;SDS011;53242;51.694;10.006;2022-07-22T05:55:05;5.85;;;2.70;;
66429;SDS011;53242;51.694;10.006;2022-07-22T05:57:29;5.68;;;2.45;;
66429;SDS011;53242;51.694;10.006;2022-07-22T05:59:51;6.28;;;2.63;;
66429;SDS011;53242;51.694;10.006;2022-07-22T06:02:14;6.25;;;2.63;;
66429;SDS011;53242;51.694;10.006;2022-07-22T06:04:43;4.70;;;2.53;;
66429;SDS011;53242;51.694;10.006;2022-07-22T06:07:05;4.50;;;2.17;;
66429;SDS011;53242;51.694;10.006;2022-07-22T06:09:28;4.28;;;2.00;;
66429;SDS011;53242;51.694;10.006;2022-07-22T06:11:51;5.38;;;2.10;;
66429;SDS011;53242;51.694;10.006;2022-07-22T06:14:13;5.03;;;2.15;;
66429;SDS011;53242;51.694;10.006;2022-07-22T06:16:37;4.40;;;2.00;;
66429;SDS011;53242;51.694;10.006;2022-07-22T06:18:59;6.22;;;2.28;;
66429;SDS011;53242;51.694;10.006;2022-07-22T06:21:22;4.13;;;2.20;;
66429;SDS011;53242;51.694;10.006;2022-07-22T06:23:44;3.75;;;2.00;;
66429;SDS011;53242;51.694;10.006;2022-07-22T06:26:07;3.92;;;2.05;;
66429;SDS011;53242;51.694;10.006;2022-07-22T06:28:31;4.07;;;2.10;;
66429;SDS011;53242;51.694;10.006;2022-07-22T06:30:53;6.45;;;2.15;;
66429;SDS011;53242;51.694;10.006;2022-07-22T06:33:17;4.47;;;2.05;;
66429;SDS011;53242;51.694;10.006;2022-07-22T06:35:40;4.22;;;1.95;;
66429;SDS011;53242;51.694;10.006;2022-07-22T06:38:02;6.57;;;1.95;;
66429;SDS011;53242;51.694;10.006;2022-07-22T06:40:26;4.35;;;1.83;;
66429;SDS011;53242;51.694;10.006;2022-07-22T06:42:56;3.50;;;2.00;;
66429;SDS011;53242;51.694;10.006;2022-07-22T06:45:28;3.40;;;1.85;;
66429;SDS011;53242;51.694;10.006;2022-07-22T06:48:07;3.92;;;2.05;;
66429;SDS011;53242;51.694;10.006;2022-07-22T06:50:30;2.78;;;1.75;;
66429;SDS011;53242;51.694;10.006;2022-07-22T06:52:55;3.45;;;1.80;;
66429;SDS011;53242;51.694;10.006;2022-07-22T06:55:19;6.05;;;2.28;;
66429;SDS011;53242;51.694;10.006;2022-07-22T06:57:52;3.38;;;1.80;;
66429;SDS011;53242;51.694;10.006;2022-07-22T07:00:15;3.25;;;1.40;;
66429;SDS011;53242;51.694;10.006;2022-07-22T07:03:10;2.78;;;1.70;;
66429;SDS011;53242;51.694;10.006;2022-07-22T07:05:33;1.40;;;1.23;;
66429;SDS011;53242;51.694;10.006;2022-07-22T07:07:56;2.70;;;1.52;;
66429;SDS011;53242;51.694;10.006;2022-07-22T07:10:18;2.75;;;1.40;;
66429;SDS011;53242;51.694;10.006;2022-07-22T07:12:55;2.35;;;1.23;;
66429;SDS011;53242;51.694;10.006;2022-07-22T07:15:23;5.68;;;1.33;;
66429;SDS011;53242;51.694;10.006;2022-07-22T07:17:47;2.83;;;1.38;;
66429;SDS011;53242;51.694;10.006;2022-07-22T07:20:11;2.83;;;1.40;;
66429;SDS011;53242;51.694;10.006;2022-07-22T07:22:34;2.17;;;1.38;;
66429;SDS011;53242;51.694;10.006;2022-07-22T07:24:57;3.38;;;1.20;;
66429;SDS011;53242;51.694;10.006;2022-07-22T07:27:25;1.65;;;1.23;;
66429;SDS011;53242;51.694;10.006;2022-07-22T07:29:50;3.17;;;1.40;;
66429;SDS011;53242;51.694;10.006;2022-07-22T07:32:13;2.35;;;1.30;;
66429;SDS011;53242;51.694;10.006;2022-07-22T07:34:35;1.52;;;1.17;;
66429;SDS011;53242;51.694;10.006;2022-07-22T07:36:58;2.42;;;1.10;;
66429;SDS011;53242;51.694;10.006;2022-07-22T07:39:20;2.05;;;0.95;;
66429;SDS011;53242;51.694;10.006;2022-07-22T07:41:43;1.27;;;0.80;;
66429;SDS011;53242;51.694;10.006;2022-07-22T07:44:08;1.40;;;0.88;;
66429;SDS011;53242;51.694;10.006;2022-07-22T07:46:31;1.08;;;0.80;;
66429;SDS011;53242;51.694;10.006;2022-07-22T07:48:54;2.97;;;1.08;;
66429;SDS011;53242;51.694;10.006;2022-07-22T07:51:17;3.85;;;1.30;;
66429;SDS011;53242;51.694;10.006;2022-07-22T07:53:40;5.47;;;1.50;;
66429;SDS011;53242;51.694;10.006;2022-07-22T07:56:02;2.70;;;1.45;;
66429;SDS011;53242;51.694;10.006;2022-07-22T07:58:25;2.63;;;1.38;;
66429;SDS011;53242;51.694;10.006;2022-07-22T08:00:47;6.30;;;1.60;;
66429;SDS011;53242;51.694;10.006;2022-07-22T08:03:10;2.75;;;1.30;;
66429;SDS011;53242;51.694;10.006;2022-07-22T08:05:33;3.05;;;1.13;;
66429;SDS011;53242;51.694;10.006;2022-07-22T08:07:57;2.60;;;1.00;;
66429;SDS011;53242;51.694;10.006;2022-07-22T08:10:20;2.53;;;1.27;;
66429;SDS011;53242;51.694;10.006;2022-07-22T08:12:57;2.05;;;1.13;;
66429;SDS011;53242;51.694;10.006;2022-07-22T08:15:43;1.92;;;1.20;;
66429;SDS011;53242;51.694;10.006;2022-07-22T08:18:32;1.98;;;1.15;;
66429;SDS011;53242;51.694;10.006;2022-07-22T08:20:55;3.80;;;1.30;;
66429;SDS011;53242;51.694;10.006;2022-07-22T08:23:30;2.58;;;1.23;;
66429;SDS011;53242;51.694;10.006;2022-07-22T08:25:52;3.63;;;1.30;;
66429;SDS011;53242;51.694;10.006;2022-07-22T08:28:15;2.38;;;1.30;;
66429;SDS011;53242;51.694;10.006;2022-07-22T08:30:37;2.13;;;1.15;;
66429;SDS011;53242;51.694;10.006;2022-07-22T08:33:02;2.75;;;1.40;;
66429;SDS011;53242;51.694;10.006;2022-07-22T08:35:25;2.30;;;1.27;;
66429;SDS011;53242;51.694;10.006;2022-07-22T08:37:48;1.80;;;1.20;;
66429;SDS011;53242;51.694;10.006;2022-07-22T08:40:10;2.67;;;1.20;;
66429;SDS011;53242;51.694;10.006;2022-07-22T08:42:37;2.80;;;1.48;;
66429;SDS011;53242;51.694;10.006;2022-07-22T08:45:01;2.67;;;1.20;;
66429;SDS011;53242;51.694;10.006;2022-07-22T08:47:24;2.65;;;1.40;;
66429;SDS011;53242;51.694;10.006;2022-07-22T08:50:07;2.65;;;1.33;;
66429;SDS011;53242;51.694;10.006;2022-07-22T08:52:50;2.38;;;1.48;;
66429;SDS011;53242;51.694;10.006;2022-07-22T08:55:13;2.33;;;1.45;;
66429;SDS011;53242;51.694;10.006;2022-07-22T08:57:36;2.60;;;1.30;;
66429;SDS011;53242;51.694;10.006;2022-07-22T09:00:00;5.13;;;1.80;;
66429;SDS011;53242;51.694;10.006;2022-07-22T09:02:27;3.08;;;1.42;;
66429;SDS011;53242;51.694;10.006;2022-07-22T09:04:58;3.47;;;1.52;;
66429;SDS011;53242;51.694;10.006;2022-07-22T09:07:29;3.63;;;1.52;;
66429;SDS011;53242;51.694;10.006;2022-07-22T09:10:19;4.30;;;1.63;;
66429;SDS011;53242;51.694;10.006;2022-07-22T09:13:01;4.07;;;1.60;;
66429;SDS011;53242;51.694;10.006;2022-07-22T09:16:00;5.65;;;1.73;;
66429;SDS011;53242;51.694;10.006;2022-07-22T09:18:50;2.78;;;1.30;;
66429;SDS011;53242;51.694;10.006;2022-07-22T09:21:37;3.85;;;1.55;;
66429;SDS011;53242;51.694;10.006;2022-07-22T09:24:27;4.22;;;1.90;;
66429;SDS011;53242;51.694;10.006;2022-07-22T09:27:23;4.00;;;1.80;;
66429;SDS011;53242;51.694;10.006;2022-07-22T09:30:23;4.78;;;1.80;;
66429;SDS011;53242;51.694;10.006;2022-07-22T09:32:54;4.88;;;2.10;;
66429;SDS011;53242;51.694;10.006;2022-07-22T09:35:51;4.25;;;2.00;;
66429;SDS011;53242;51.694;10.006;2022-07-22T09:38:16;3.78;;;2.00;;
66429;SDS011;53242;51.694;10.006;2022-07-22T09:40:42;4.72;;;2.13;;
66429;SDS011;53242;51.694;10.006;2022-07-22T09:43:06;4.60;;;1.92;;
66429;SDS011;53242;51.694;10.006;2022-07-22T09:45:35;4.45;;;2.13;;
66429;SDS011;53242;51.694;10.006;2022-07-22T09:47:58;4.07;;;2.28;;
66429;SDS011;53242;51.694;10.006;2022-07-22T09:50:23;3.85;;;2.10;;
66429;SDS011;53242;51.694;10.006;2022-07-22T09:53:10;4.85;;;2.42;;
66429;SDS011;53242;51.694;10.006;2022-07-22T09:55:38;3.55;;;2.15;;
66429;SDS011;53242;51.694;10.006;2022-07-22T09:58:01;5.60;;;2.20;;
66429;SDS011;53242;51.694;10.006;2022-07-22T10:00:25;4.78;;;2.42;;
66429;SDS011;53242;51.694;10.006;2022-07-22T10:05:21;4.03;;;2.17;;
66429;SDS011;53242;51.694;10.006;2022-07-22T10:07:46;6.10;;;2.55;;
66429;SDS011;53242;51.694;10.006;2022-07-22T10:12:33;6.45;;;2.70;;
66429;SDS011;53242;51.694;10.006;2022-07-22T10:14:56;4.43;;;2.40;;
66429;SDS011;53242;51.694;10.006;2022-07-22T10:17:19;4.75;;;2.40;;
66429;SDS011;53242;51.694;10.006;2022-07-22T10:19:43;5.32;;;2.55;;
66429;SDS011;53242;51.694;10.006;2022-07-22T10:25:06;5.03;;;2.50;;
66429;SDS011;53242;51.694;10.006;2022-07-22T10:27:43;6.32;;;2.80;;
66429;SDS011;53242;51.694;10.006;2022-07-22T10:30:10;5.40;;;2.50;;
66429;SDS011;53242;51.694;10.006;2022-07-22T10:32:35;5.70;;;2.60;;
66429;SDS011;53242;51.694;10.006;2022-07-22T10:40:09;6.18;;;3.00;;
66429;SDS011;53242;51.694;10.006;2022-07-22T10:45:24;7.47;;;3.20;;
66429;SDS011;53242;51.694;10.006;2022-07-22T10:50:43;5.95;;;3.20;;
66429;SDS011;53242;51.694;10.006;2022-07-22T10:53:09;6.18;;;2.92;;
66429;SDS011;53242;51.694;10.006;2022-07-22T10:55:34;7.20;;;3.55;;
66429;SDS011;53242;51.694;10.006;2022-07-22T10:57:58;7.88;;;3.17;;
66429;SDS011;53242;51.694;10.006;2022-07-22T11:00:20;5.90;;;2.80;;
66429;SDS011;53242;51.694;10.006;2022-07-22T11:02:43;6.47;;;3.08;;
66429;SDS011;53242;51.694;10.006;2022-07-22T11:05:06;5.18;;;2.83;;
66429;SDS011;53242;51.694;10.006;2022-07-22T11:07:30;5.25;;;2.72;;
66429;SDS011;53242;51.694;10.006;2022-07-22T11:09:55;6.10;;;3.10;;
66429;SDS011;53242;51.694;10.006;2022-07-22T11:12:30;6.28;;;3.00;;
66429;SDS011;53242;51.694;10.006;2022-07-22T11:14:53;5.60;;;2.95;;
66429;SDS011;53242;51.694;10.006;2022-07-22T11:17:15;5.25;;;2.65;;
66429;SDS011;53242;51.694;10.006;2022-07-22T11:19:38;7.45;;;3.50;;
66429;SDS011;53242;51.694;10.006;2022-07-22T11:22:05;5.68;;;3.20;;
66429;SDS011;53242;51.694;10.006;2022-07-22T11:24:31;7.22;;;3.20;;
66429;SDS011;53242;51.694;10.006;2022-07-22T11:26:55;6.30;;;3.20;;
66429;SDS011;53242;51.694;10.006;2022-07-22T11:31:50;5.32;;;2.72;;
66429;SDS011;53242;51.694;10.006;2022-07-22T11:34:13;7.60;;;3.05;;
66429;SDS011;53242;51.694;10.006;2022-07-22T11:36:39;6.57;;;3.20;;
66429;SDS011;53242;51.694;10.006;2022-07-22T11:39:03;6.13;;;2.90;;
66429;SDS011;53242;51.694;10.006;2022-07-22T11:41:28;6.53;;;2.95;;
66429;SDS011;53242;51.694;10.006;2022-07-22T11:43:52;8.93;;;3.63;;
66429;SDS011;53242;51.694;10.006;2022-07-22T11:46:15;6.35;;;3.03;;
66429;SDS011;53242;51.694;10.006;2022-07-22T11:48:39;5.75;;;2.90;;
66429;SDS011;53242;51.694;10.006;2022-07-22T11:51:04;7.32;;;3.38;;
66429;SDS011;53242;51.694;10.006;2022-07-22T11:53:28;6.32;;;3.05;;
66429;SDS011;53242;51.694;10.006;2022-07-22T11:55:51;5.03;;;2.63;;
66429;SDS011;53242;51.694;10.006;2022-07-22T11:58:32;6.03;;;2.95;;
66429;SDS011;53242;51.694;10.006;2022-07-22T12:00:58;6.72;;;3.58;;
66429;SDS011;53242;51.694;10.006;2022-07-22T12:03:21;4.78;;;2.50;;
66429;SDS011;53242;51.694;10.006;2022-07-22T12:05:43;6.25;;;2.80;;
66429;SDS011;53242;51.694;10.006;2022-07-22T12:08:06;5.50;;;2.80;;
66429;SDS011;53242;51.694;10.006;2022-07-22T12:10:28;6.15;;;2.85;;
66429;SDS011;53242;51.694;10.006;2022-07-22T12:12:51;5.03;;;2.65;;
66429;SDS011;53242;51.694;10.006;2022-07-22T12:15:13;4.57;;;2.50;;
66429;SDS011;53242;51.694;10.006;2022-07-22T12:17:36;6.50;;;2.80;;
66429;SDS011;53242;51.694;10.006;2022-07-22T12:20:08;5.35;;;2.67;;
66429;SDS011;53242;51.694;10.006;2022-07-22T12:22:32;7.38;;;2.97;;
66429;SDS011;53242;51.694;10.006;2022-07-22T12:24:59;5.25;;;2.50;;
66429;SDS011;53242;51.694;10.006;2022-07-22T12:27:23;4.93;;;2.78;;
66429;SDS011;53242;51.694;10.006;2022-07-22T12:29:46;7.13;;;2.85;;
66429;SDS011;53242;51.694;10.006;2022-07-22T12:32:14;5.63;;;2.90;;
66429;SDS011;53242;51.694;10.006;2022-07-22T12:34:44;5.50;;;2.70;;
66429;SDS011;53242;51.694;10.006;2022-07-22T12:42:31;6.18;;;2.80;;
66429;SDS011;53242;51.694;10.006;2022-07-22T12:45:08;6.78;;;2.92;;
66429;SDS011;53242;51.694;10.006;2022-07-22T12:52:40;5.43;;;2.80;;
66429;SDS011;53242;51.694;10.006;2022-07-22T12:55:02;5.22;;;2.97;;
66429;SDS011;53242;51.694;10.006;2022-07-22T12:57:25;5.57;;;2.85;;
66429;SDS011;53242;51.694;10.006;2022-07-22T12:59:51;6.05;;;3.05;;
66429;SDS011;53242;51.694;10.006;2022-07-22T13:02:14;6.97;;;3.03;;
66429;SDS011;53242;51.694;10.006;2022-07-22T13:04:37;6.15;;;3.25;;
66429;SDS011;53242;51.694;10.006;2022-07-22T13:06:59;7.53;;;3.30;;
66429;SDS011;53242;51.694;10.006;2022-07-22T13:09:21;7.90;;;3.58;;
66429;SDS011;53242;51.694;10.006;2022-07-22T13:11:44;7.47;;;3.45;;
66429;SDS011;53242;51.694;10.006;2022-07-22T13:14:07;5.47;;;3.03;;
66429;SDS011;53242;51.694;10.006;2022-07-22T13:16:30;7.43;;;3.50;;
66429;SDS011;53242;51.694;10.006;2022-07-22T13:18:52;6.18;;;3.30;;
66429;SDS011;53242;51.694;10.006;2022-07-22T13:21:15;7.10;;;3.45;;
66429;SDS011;53242;51.694;10.006;2022-07-22T13:23:37;6.43;;;3.20;;
66429;SDS011;53242;51.694;10.006;2022-07-22T13:26:00;5.53;;;2.97;;
66429;SDS011;53242;51.694;10.006;2022-07-22T13:28:23;6.43;;;2.88;;
66429;SDS011;53242;51.694;10.006;2022-07-22T13:30:45;6.82;;;3.33;;
66429;SDS011;53242;51.694;10.006;2022-07-22T13:33:07;7.60;;;3.47;;
66429;SDS011;53242;51.694;10.006;2022-07-22T13:35:30;6.78;;;3.25;;
66429;SDS011;53242;51.694;10.006;2022-07-22T13:37:52;7.13;;;3.30;;
66429;SDS011;53242;51.694;10.006;2022-07-22T13:40:15;7.68;;;3.70;;
66429;SDS011;53242;51.694;10.006;2022-07-22T13:42:38;8.38;;;3.72;;
66429;SDS011;53242;51.694;10.006;2022-07-22T13:45:00;7.03;;;2.80;;
66429;SDS011;53242;51.694;10.006;2022-07-22T13:47:23;5.32;;;3.10;;
66429;SDS011;53242;51.694;10.006;2022-07-22T13:49:45;6.32;;;3.00;;
66429;SDS011;53242;51.694;10.006;2022-07-22T13:52:08;6.63;;;3.00;;
66429;SDS011;53242;51.694;10.006;2022-07-22T13:54:31;6.40;;;3.30;;
66429;SDS011;53242;51.694;10.006;2022-07-22T13:56:54;7.53;;;3.15;;
66429;SDS011;53242;51.694;10.006;2022-07-22T13:59:17;7.45;;;3.40;;
66429;SDS011;53242;51.694;10.006;2022-07-22T14:01:39;6.47;;;3.47;;
66429;SDS011;53242;51.694;10.006;2022-07-22T14:04:02;8.52;;;3.95;;
66429;SDS011;53242;51.694;10.006;2022-07-22T14:06:26;7.03;;;3.80;;
66429;SDS011;53242;51.694;10.006;2022-07-22T14:08:48;6.75;;;3.72;;
66429;SDS011;53242;51.694;10.006;2022-07-22T14:11:11;7.45;;;3.53;;
66429;SDS011;53242;51.694;10.006;2022-07-22T14:13:33;8.23;;;3.60;;
66429;SDS011;53242;51.694;10.006;2022-07-22T14:15:56;6.90;;;3.30;;
66429;SDS011;53242;51.694;10.006;2022-07-22T14:18:18;6.78;;;3.60;;
66429;SDS011;53242;51.694;10.006;2022-07-22T14:20:41;6.75;;;3.40;;
66429;SDS011;53242;51.694;10.006;2022-07-22T14:23:03;6.45;;;3.25;;
66429;SDS011;53242;51.694;10.006;2022-07-22T14:25:27;6.97;;;3.40;;
66429;SDS011;53242;51.694;10.006;2022-07-22T14:27:50;8.82;;;3.45;;
66429;SDS011;53242;51.694;10.006;2022-07-22T14:30:12;7.75;;;3.90;;
66429;SDS011;53242;51.694;10.006;2022-07-22T14:32:35;6.57;;;3.50;;
66429;SDS011;53242;51.694;10.006;2022-07-22T14:34:57;7.85;;;3.95;;
66429;SDS011;53242;51.694;10.006;2022-07-22T14:37:20;7.60;;;3.85;;
66429;SDS011;53242;51.694;10.006;2022-07-22T14:39:43;7.90;;;3.90;;
66429;SDS011;53242;51.694;10.006;2022-07-22T14:42:06;7.60;;;4.18;;
66429;SDS011;53242;51.694;10.006;2022-07-22T14:44:28;6.30;;;3.53;;
66429;SDS011;53242;51.694;10.006;2022-07-22T14:46:51;6.13;;;3.30;;
66429;SDS011;53242;51.694;10.006;2022-07-22T14:49:14;6.50;;;3.60;;
66429;SDS011;53242;51.694;10.006;2022-07-22T14:51:37;8.13;;;3.58;;
66429;SDS011;53242;51.694;10.006;2022-07-22T14:54:00;7.07;;;3.80;;